Time;durP1;ratioP1;P1;durP2;ratioP2;P2;SDS_P1;SDS_P2;PMS_P1;PMS_P2;Temp;Humidity;BMP_temperature;BMP_pressure;BME280_temperature;BME280_humidity;BME280_pressure;Samples;Min_cycle;Max_cycle;Signal;HPM_P1;HPM_P2
2020/12/13 00:01:46;;;;;;;119.30;55.92;;;;;;;1.18;86.30;99713.78;1745492;81;21208;-72
2020/12/13 00:04:12;;;;;;;126.38;55.17;;;;;;;1.18;86.29;99717.72;1753037;81;21186;-72
2020/12/13 00:06:39;;;;;;;130.15;58.45;;;;;;;1.17;86.29;99718.67;1752910;80;21223;-72
2020/12/13 00:09:05;;;;;;;118.45;55.03;;;;;;;1.15;86.27;99720.61;1778702;80;21691;-72
2020/12/13 00:11:34;;;;;;;109.25;50.58;;;;;;;1.14;86.27;99723.34;1778957;80;21140;-72
2020/12/13 00:13:59;;;;;;;113.15;52.88;;;;;;;1.13;86.25;99725.13;1778644;80;21190;-72
2020/12/13 00:16:26;;;;;;;108.97;49.00;;;;;;;1.14;86.25;99722.03;1778272;80;21124;-72
2020/12/13 00:18:52;;;;;;;109.65;50.90;;;;;;;1.12;86.23;99728.73;1778287;80;21184;-71
2020/12/13 00:21:18;;;;;;;111.25;51.75;;;;;;;1.16;86.22;99731.95;1756196;81;21135;-72
2020/12/13 00:23:44;;;;;;;97.00;49.42;;;;;;;1.20;86.23;99731.55;1792643;80;21143;-72
2020/12/13 00:26:11;;;;;;;104.90;52.58;;;;;;;1.21;86.25;99737.16;1786810;78;22215;-72
2020/12/13 00:28:38;;;;;;;109.83;52.38;;;;;;;1.21;86.26;99738.47;1780340;79;21623;-72
2020/12/13 00:31:05;;;;;;;111.50;54.40;;;;;;;1.23;86.28;99736.53;1755572;81;21184;-74
2020/12/13 00:33:31;;;;;;;111.42;52.65;;;;;;;1.24;86.29;99738.21;1763728;80;21238;-71
2020/12/13 00:35:58;;;;;;;124.40;53.70;;;;;;;1.19;86.26;99737.78;1780950;80;21140;-72
2020/12/13 00:38:24;;;;;;;108.92;52.43;;;;;;;1.17;86.26;99737.05;1748587;82;21206;-71
2020/12/13 00:40:51;;;;;;;108.75;51.50;;;;;;;1.16;86.26;99738.52;1780945;80;21200;-71
2020/12/13 00:43:18;;;;;;;111.52;51.05;;;;;;;1.14;86.25;99739.94;1744096;81;21144;-71
2020/12/13 00:45:44;;;;;;;116.90;51.05;;;;;;;1.18;86.25;99739.20;1756199;81;21132;-71
2020/12/13 00:48:11;;;;;;;103.10;46.90;;;;;;;1.17;86.23;99735.73;1756415;81;21172;-71
2020/12/13 00:50:38;;;;;;;114.17;52.78;;;;;;;1.16;86.23;99739.83;1756216;81;22155;-71
2020/12/13 00:53:06;;;;;;;145.35;60.00;;;;;;;1.15;86.22;99743.40;1758370;80;21171;-72
2020/12/13 00:55:33;;;;;;;281.35;97.30;;;;;;;1.16;86.23;99741.94;1773341;80;21147;-72
2020/12/13 00:57:59;;;;;;;193.15;77.80;;;;;;;1.16;86.22;99743.25;1756426;81;21128;-72
2020/12/13 01:00:26;;;;;;;198.90;73.05;;;;;;;1.18;86.24;99751.86;1808854;78;21501;-72
2020/12/13 01:05:32;;;;;;;125.00;55.00;;;;;;;1.26;86.22;99753.38;1834033;78;22752;-72
2020/12/13 01:07:58;;;;;;;124.22;55.10;;;;;;;1.23;86.26;99751.48;1792619;79;21748;-72
2020/12/13 01:10:25;;;;;;;119.50;55.70;;;;;;;1.30;86.28;99756.08;1795522;79;21139;-73
2020/12/13 01:12:51;;;;;;;129.03;56.60;;;;;;;1.34;86.28;99761.91;1790673;79;21153;-72
2020/12/13 01:15:17;;;;;;;139.92;58.23;;;;;;;1.38;86.28;99762.85;1789433;80;21137;-72
2020/12/13 01:17:46;;;;;;;131.75;63.15;;;;;;;1.38;86.29;99770.73;1789388;80;21208;-72
2020/12/13 01:20:13;;;;;;;126.67;57.05;;;;;;;1.34;86.27;99761.44;1812412;78;21152;-72
2020/12/13 01:22:39;;;;;;;121.13;54.33;;;;;;;1.32;86.26;99759.43;1821960;78;21143;-72
2020/12/13 01:25:06;;;;;;;125.60;55.33;;;;;;;1.31;86.25;99768.27;1821908;78;21110;-72
2020/12/13 01:27:33;;;;;;;113.52;53.28;;;;;;;1.27;86.23;99774.72;1821784;78;21167;-72
2020/12/13 01:30:00;;;;;;;113.88;51.60;;;;;;;1.27;86.23;99772.09;1821823;78;21167;-72
2020/12/13 01:32:26;;;;;;;121.50;53.20;;;;;;;1.28;86.23;99780.34;1794507;78;21132;-72
2020/12/13 01:34:52;;;;;;;121.42;53.05;;;;;;;1.30;86.23;99779.72;1789118;78;21203;-72
2020/12/13 01:37:19;;;;;;;107.75;50.38;;;;;;;1.30;86.22;99777.09;1788942;80;21605;-72
2020/12/13 01:39:45;;;;;;;104.75;52.40;;;;;;;1.31;86.21;99770.89;1789338;80;21546;-72
2020/12/13 01:42:11;;;;;;;118.50;53.35;;;;;;;1.36;86.25;99781.86;1789583;79;21239;-72
2020/12/13 01:44:38;;;;;;;123.62;56.53;;;;;;;1.39;86.25;99778.98;1789427;80;21137;-72
2020/12/13 01:47:06;;;;;;;117.03;55.78;;;;;;;1.44;86.24;99771.53;1789750;80;21139;-72
2020/12/13 01:49:44;;;;;;;163.92;65.83;;;;;;;1.42;86.23;99776.09;1789454;79;21157;-72
2020/12/13 01:55:05;;;;;;;133.67;61.33;;;;;;;1.37;86.24;99781.38;1789563;79;21123;-72
2020/12/13 01:57:36;;;;;;;124.38;55.58;;;;;;;1.35;86.25;99779.34;1789453;79;21175;-72
2020/12/13 02:00:11;;;;;;;127.00;57.83;;;;;;;1.33;86.23;99783.44;1789628;79;21190;-72
2020/12/13 02:02:52;;;;;;;112.20;48.65;;;;;;;1.32;86.22;99788.32;1789545;79;21131;-72
2020/12/13 02:05:20;;;;;;;117.45;51.98;;;;;;;1.31;86.20;99789.27;1809227;78;21216;-72
2020/12/13 02:07:47;;;;;;;131.07;53.45;;;;;;;1.29;86.19;99785.95;1813344;79;21121;-72
2020/12/13 02:10:14;;;;;;;117.75;51.23;;;;;;;1.30;86.17;99784.97;1813421;79;21116;-72
2020/12/13 02:12:42;;;;;;;118.53;53.92;;;;;;;1.31;86.16;99793.69;1813530;79;21187;-72
2020/12/13 02:15:08;;;;;;;123.62;55.28;;;;;;;1.32;86.17;99797.52;1813138;78;21597;-72
2020/12/13 02:17:36;;;;;;;120.08;53.98;;;;;;;1.31;86.15;99799.78;1812825;79;21127;-72
2020/12/13 02:20:09;;;;;;;132.30;58.02;;;;;;;1.32;86.16;99797.98;1810320;79;21159;-72
2020/12/13 02:22:40;;;;;;;112.37;54.18;;;;;;;1.31;86.16;99797.16;1781808;79;21119;-72
2020/12/13 02:25:11;;;;;;;117.05;57.67;;;;;;;1.30;86.18;99793.36;1779913;79;22063;-72
2020/12/13 02:27:38;;;;;;;118.30;57.33;;;;;;;1.35;86.19;99799.88;1780667;80;21092;-72
2020/12/13 02:30:05;;;;;;;133.70;60.92;;;;;;;1.36;86.17;99800.72;1780869;80;21453;-72
2020/12/13 02:32:32;;;;;;;120.10;56.37;;;;;;;1.36;86.19;99798.09;1780771;80;21120;-72
2020/12/13 02:34:58;;;;;;;117.67;53.98;;;;;;;1.37;86.17;99793.20;1780891;80;21140;-72
2020/12/13 02:37:26;;;;;;;109.55;51.83;;;;;;;1.35;86.17;99801.20;1807908;79;22006;-72
2020/12/13 02:39:53;;;;;;;123.40;54.60;;;;;;;1.36;86.15;99797.62;1805509;79;21168;-72
2020/12/13 02:42:19;;;;;;;113.25;51.95;;;;;;;1.38;86.16;99792.22;1812788;79;21623;-72
2020/12/13 02:44:45;;;;;;;114.92;55.38;;;;;;;1.41;86.15;99791.48;1812751;79;21131;-72
2020/12/13 02:47:12;;;;;;;110.48;56.42;;;;;;;1.42;86.16;99798.89;1803092;79;21644;-72
2020/12/13 02:49:41;;;;;;;120.90;59.10;;;;;;;1.41;86.16;99803.31;1780780;80;21549;-72
2020/12/13 02:52:08;;;;;;;133.35;63.33;;;;;;;1.40;86.15;99804.30;1780960;80;21434;-72
2020/12/13 02:54:35;;;;;;;132.43;61.55;;;;;;;1.39;86.18;99805.24;1780710;80;21140;-72
2020/12/13 02:57:03;;;;;;;133.37;62.85;;;;;;;1.40;86.17;99808.70;1780707;80;21505;-72
2020/12/13 02:59:29;;;;;;;133.25;59.73;;;;;;;1.38;86.17;99816.70;1780485;80;21128;-72
2020/12/13 03:01:55;;;;;;;123.10;55.63;;;;;;;1.36;86.17;99818.63;1780780;80;21132;-72
2020/12/13 03:04:22;;;;;;;132.27;57.40;;;;;;;1.38;86.18;99816.70;1775367;80;21183;-72
2020/12/13 03:06:48;;;;;;;120.17;52.45;;;;;;;1.39;86.16;99823.63;1756595;81;21137;-72
2020/12/13 03:09:14;;;;;;;111.10;50.90;;;;;;;1.39;86.16;99824.95;1776534;80;21108;-72
2020/12/13 03:11:41;;;;;;;106.40;52.38;;;;;;;1.41;86.15;99825.64;1781905;80;21140;-72
2020/12/13 03:14:07;;;;;;;112.40;52.67;;;;;;;1.41;86.15;99826.11;1779145;80;22132;-72
2020/12/13 03:16:33;;;;;;;113.92;55.70;;;;;;;1.42;86.16;99829.94;1751546;81;21137;-72
2020/12/13 03:19:00;;;;;;;111.20;52.88;;;;;;;1.47;86.14;99827.78;1751640;81;21181;-72
2020/12/13 03:21:26;;;;;;;103.67;54.67;;;;;;;1.51;86.13;99825.73;1751582;81;21145;-72
2020/12/13 03:23:52;;;;;;;112.12;51.40;;;;;;;1.53;86.14;99833.00;1751200;81;21204;-72
2020/12/13 03:26:18;;;;;;;113.12;54.35;;;;;;;1.55;86.14;99838.95;1751516;81;21539;-72
2020/12/13 03:28:45;;;;;;;111.20;54.98;;;;;;;1.56;86.12;99843.73;1751365;81;21149;-72
2020/12/13 03:31:11;;;;;;;112.40;56.08;;;;;;;1.54;86.12;99846.50;1751697;81;21197;-72
2020/12/13 03:33:37;;;;;;;119.35;58.28;;;;;;;1.55;86.11;99851.28;1751619;81;21138;-72
2020/12/13 03:36:03;;;;;;;114.42;54.40;;;;;;;1.48;86.11;99851.76;1751474;81;21169;-72
2020/12/13 03:38:30;;;;;;;110.15;54.30;;;;;;;1.44;86.12;99847.71;1751679;81;21277;-72
2020/12/13 03:40:56;;;;;;;107.45;50.45;;;;;;;1.46;86.10;99848.91;1769635;80;21176;-72
2020/12/13 03:43:22;;;;;;;96.35;50.15;;;;;;;1.45;86.10;99845.45;1782655;80;21624;-72
2020/12/13 03:45:48;;;;;;;104.43;50.48;;;;;;;1.42;86.08;99850.95;1782290;80;21168;-72
2020/12/13 03:48:15;;;;;;;103.55;50.35;;;;;;;1.45;86.07;99857.27;1782743;80;21113;-72
2020/12/13 03:50:41;;;;;;;115.62;54.50;;;;;;;1.51;86.06;99855.45;1782514;80;21632;-72
2020/12/13 03:53:12;;;;;;;113.37;54.00;;;;;;;1.53;86.05;99855.80;1782496;80;21168;-72
2020/12/13 03:55:39;;;;;;;110.15;55.08;;;;;;;1.51;86.06;99846.25;1773104;80;21148;-71
2020/12/13 03:58:06;;;;;;;113.72;55.20;;;;;;;1.45;86.04;99852.02;1751563;81;21124;-71
2020/12/13 04:00:33;;;;;;;115.55;54.40;;;;;;;1.41;86.03;99846.66;1752231;80;21491;-71
2020/12/13 04:02:59;;;;;;;113.77;55.63;;;;;;;1.37;86.04;99853.11;1751558;81;21205;-72
2020/12/13 04:05:26;;;;;;;107.58;53.38;;;;;;;1.34;86.04;99845.48;1774563;80;21166;-72
2020/12/13 04:07:53;;;;;;;104.30;51.50;;;;;;;1.35;86.03;99856.36;1765631;80;21600;-72
2020/12/13 04:10:19;;;;;;;108.37;50.85;;;;;;;1.36;86.03;99849.31;1794491;80;21566;-72
2020/12/13 04:12:47;;;;;;;102.70;50.80;;;;;;;1.38;86.04;99853.48;1794386;80;21159;-72
2020/12/13 04:15:13;;;;;;;99.75;50.83;;;;;;;1.41;86.04;99858.48;1795077;78;21215;-72
2020/12/13 04:17:40;;;;;;;103.45;48.75;;;;;;;1.39;86.03;99856.47;1794459;80;21177;-72
2020/12/13 04:20:07;;;;;;;102.72;46.37;;;;;;;1.39;86.03;99863.03;1794671;80;21186;-72
2020/12/13 04:22:33;;;;;;;109.20;49.48;;;;;;;1.42;86.02;99865.41;1794553;80;21162;-73
2020/12/13 04:24:59;;;;;;;104.53;50.85;;;;;;;1.44;86.04;99863.47;1794342;80;21143;-72
2020/12/13 04:27:25;;;;;;;106.05;53.52;;;;;;;1.40;86.02;99867.34;1794600;78;21199;-72
2020/12/13 04:29:52;;;;;;;108.78;52.45;;;;;;;1.36;86.01;99861.98;1792689;80;21186;-73
2020/12/13 04:32:18;;;;;;;110.95;53.28;;;;;;;1.35;86.02;99868.66;1790043;80;21530;-73
2020/12/13 04:34:44;;;;;;;110.32;55.03;;;;;;;1.35;86.01;99862.92;1792870;80;21636;-72
2020/12/13 04:37:11;;;;;;;110.20;54.95;;;;;;;1.37;86.04;99864.93;1792980;80;21154;-72
2020/12/13 04:39:37;;;;;;;118.77;55.98;;;;;;;1.34;86.01;99866.50;1793036;80;21157;-72
2020/12/13 04:42:04;;;;;;;109.27;53.95;;;;;;;1.32;85.98;99871.05;1792768;80;21147;-72
2020/12/13 04:44:30;;;;;;;112.15;54.30;;;;;;;1.29;85.99;99877.88;1792877;80;21604;-72
2020/12/13 04:47:02;;;;;;;104.25;51.48;;;;;;;1.27;85.97;99870.58;1792567;80;21163;-72
2020/12/13 04:49:29;;;;;;;100.00;47.45;;;;;;;1.33;85.97;99875.36;1792961;80;21147;-72
2020/12/13 04:51:55;;;;;;;105.20;49.42;;;;;;;1.35;85.98;99878.68;1793057;78;21187;-72
2020/12/13 04:54:23;;;;;;;112.37;52.03;;;;;;;1.35;85.98;99880.00;1796042;78;21183;-72
2020/12/13 04:56:51;;;;;;;103.15;50.83;;;;;;;1.36;85.99;99880.36;1827102;78;21170;-72
2020/12/13 04:59:17;;;;;;;106.07;54.77;;;;;;;1.40;85.95;99884.41;1823707;78;21127;-72
2020/12/13 05:01:45;;;;;;;115.40;54.08;;;;;;;1.39;85.96;99892.41;1794989;78;21140;-72
2020/12/13 05:04:12;;;;;;;114.60;55.40;;;;;;;1.40;85.98;99893.61;1794501;80;21245;-73
2020/12/13 05:06:42;;;;;;;106.30;53.30;;;;;;;1.36;85.95;99886.92;1783457;78;21140;-73
2020/12/13 05:09:09;;;;;;;114.75;55.30;;;;;;;1.34;85.95;99887.98;1780739;80;21123;-72
2020/12/13 05:11:41;;;;;;;121.02;55.00;;;;;;;1.29;85.95;99885.75;1780884;79;21167;-72
2020/12/13 05:14:07;;;;;;;117.85;52.60;;;;;;;1.25;85.93;99886.95;1780655;80;21597;-72
2020/12/13 05:16:34;;;;;;;107.58;51.50;;;;;;;1.25;85.92;99884.33;1780571;80;21200;-72
2020/12/13 05:19:00;;;;;;;113.65;51.63;;;;;;;1.25;85.92;99889.58;1780733;80;21180;-72
2020/12/13 05:21:26;;;;;;;111.77;52.58;;;;;;;1.26;85.92;99893.88;1780479;80;21184;-72
2020/12/13 05:23:53;;;;;;;107.97;47.85;;;;;;;1.26;85.92;99894.36;1780528;80;21605;-72
2020/12/13 05:26:21;;;;;;;103.85;49.40;;;;;;;1.27;85.93;99891.59;1780433;80;21582;-72
2020/12/13 05:28:49;;;;;;;106.22;52.93;;;;;;;1.27;85.91;99894.69;1780434;80;22007;-72
2020/12/13 05:31:21;;;;;;;107.78;54.48;;;;;;;1.29;85.91;99892.80;1780673;80;21143;-72
2020/12/13 05:33:51;;;;;;;104.12;51.60;;;;;;;1.37;85.93;99900.39;1780551;80;21141;-72
2020/12/13 05:36:16;;;;;;;105.00;54.33;;;;;;;1.35;85.91;99903.64;1780595;80;21200;-72
2020/12/13 05:38:43;;;;;;;106.52;54.60;;;;;;;1.34;85.93;99904.59;1780249;80;21140;-72
2020/12/13 05:41:11;;;;;;;110.00;54.58;;;;;;;1.34;85.94;99904.59;1780072;79;21203;-72
2020/12/13 05:43:48;;;;;;;110.37;55.83;;;;;;;1.31;85.94;99908.78;1778808;80;21128;-72
2020/12/13 05:46:35;;;;;;;113.83;52.85;;;;;;;1.28;85.94;99899.84;1780251;80;21135;-72
2020/12/13 05:51:38;;;;;;;107.10;50.00;;;;;;;1.25;85.93;99906.65;1780507;80;21116;-72
2020/12/13 05:56:57;;;;;;;100.07;55.50;;;;;;;1.36;85.92;99910.56;1799645;77;28488;-72
2020/12/13 05:59:29;;;;;;;108.20;53.60;;;;;;;1.45;85.90;99921.63;1788010;80;21587;-72
2020/12/13 06:01:57;;;;;;;107.72;54.10;;;;;;;1.53;85.90;99926.27;1787716;80;21186;-72
2020/12/13 06:04:31;;;;;;;112.08;54.88;;;;;;;1.49;85.94;99925.69;1783033;80;21575;-72
2020/12/13 06:07:00;;;;;;;106.43;53.92;;;;;;;1.45;85.93;99928.20;1756737;81;21111;-72
2020/12/13 06:09:33;;;;;;;116.10;55.48;;;;;;;1.42;85.93;99928.92;1756779;80;21152;-72
2020/12/13 06:12:12;;;;;;;110.10;54.20;;;;;;;1.40;85.95;99934.32;1756160;81;21131;-72
2020/12/13 06:14:41;;;;;;;107.80;53.33;;;;;;;1.36;85.95;99939.46;1756615;81;21199;-72
2020/12/13 06:17:08;;;;;;;109.70;51.55;;;;;;;1.30;85.93;99942.55;1756670;81;21151;-72
2020/12/13 06:19:37;;;;;;;111.22;52.88;;;;;;;1.33;85.91;99946.28;1756552;80;21459;-72
2020/12/13 06:22:03;;;;;;;103.78;48.38;;;;;;;1.36;85.92;99940.78;1756628;81;21107;-72
2020/12/13 06:24:30;;;;;;;97.02;47.40;;;;;;;1.33;85.91;99950.22;1743535;81;21150;-72
2020/12/13 06:26:57;;;;;;;106.03;50.12;;;;;;;1.34;85.89;99950.55;1726569;83;21159;-72
2020/12/13 06:29:24;;;;;;;100.40;50.58;;;;;;;1.35;85.88;99955.33;1726628;82;21151;-72
2020/12/13 06:31:52;;;;;;;108.47;52.03;;;;;;;1.35;85.90;99950.91;1744656;81;21139;-72
2020/12/13 06:34:18;;;;;;;105.30;51.80;;;;;;;1.34;85.90;99953.66;1744765;81;21188;-72
2020/12/13 06:36:45;;;;;;;101.10;51.55;;;;;;;1.34;85.89;99958.43;1727094;81;21170;-72
2020/12/13 06:39:14;;;;;;;112.03;54.23;;;;;;;1.34;85.89;99963.69;1726596;82;21162;-72
2020/12/13 06:41:46;;;;;;;111.08;54.93;;;;;;;1.34;85.89;99962.37;1731302;81;21561;-72
2020/12/13 06:44:13;;;;;;;114.57;55.90;;;;;;;1.35;85.90;99967.98;1756108;81;21216;-72
2020/12/13 06:46:43;;;;;;;107.12;52.88;;;;;;;1.37;85.91;99962.13;1756646;81;21131;-72
2020/12/13 06:49:11;;;;;;;99.97;50.10;;;;;;;1.34;85.87;99963.69;1756682;81;21131;-72
2020/12/13 06:51:40;;;;;;;106.25;50.30;;;;;;;1.32;85.87;99965.61;1756853;81;21200;-72
2020/12/13 06:54:12;;;;;;;103.00;48.58;;;;;;;1.31;85.86;99962.62;1729866;81;21174;-72
2020/12/13 06:56:39;;;;;;;96.00;46.05;;;;;;;1.33;85.86;99963.83;1728313;81;21849;-72
2020/12/13 06:59:08;;;;;;;110.15;49.13;;;;;;;1.37;85.85;99972.63;1729229;83;21181;-72
2020/12/13 07:01:39;;;;;;;107.10;50.93;;;;;;;1.35;85.64;99971.93;1729551;83;21126;-72
2020/12/13 07:04:27;;;;;;;117.47;54.08;;;;;;;1.35;85.64;99971.93;1729320;83;21604;-72
2020/12/13 07:09:38;;;;;;;111.68;53.38;;;;;;;1.35;85.82;99989.48;1852126;77;22695;-70
2020/12/13 07:12:05;;;;;;;116.08;56.13;;;;;;;1.29;85.82;99993.44;1798629;78;21546;-72
2020/12/13 07:14:34;;;;;;;124.85;58.35;;;;;;;1.26;85.84;99991.06;1791736;80;21642;-72
2020/12/13 07:19:32;;;;;;;118.55;59.18;;;;;;;1.31;85.85;99999.87;1772343;80;21843;-72
2020/12/13 07:22:01;;;;;;;115.80;54.77;;;;;;;1.33;85.83;100004.06;1791689;78;21179;-72
2020/12/13 07:24:28;;;;;;;108.95;51.65;;;;;;;1.35;85.83;100009.18;1791435;78;21546;-72
2020/12/13 07:26:54;;;;;;;128.75;63.50;;;;;;;1.33;85.83;100004.06;1789942;78;21137;-73
2020/12/13 07:29:21;;;;;;;128.47;60.50;;;;;;;1.34;85.82;100010.97;1790099;79;21145;-73
2020/12/13 07:31:47;;;;;;;122.45;58.68;;;;;;;1.36;85.80;100007.76;1790072;79;21187;-72
2020/12/13 07:34:13;;;;;;;127.35;61.42;;;;;;;1.38;85.80;100011.09;1791605;78;21195;-72
2020/12/13 07:36:40;;;;;;;157.88;80.87;;;;;;;1.38;85.82;100016.34;1789841;80;21167;-72
2020/12/13 07:39:08;;;;;;;111.77;55.50;;;;;;;1.40;85.82;100021.02;1789877;80;21234;-72
2020/12/13 07:41:34;;;;;;;114.42;58.15;;;;;;;1.44;85.83;100018.47;1790000;80;21144;-73
2020/12/13 07:44:07;;;;;;;111.40;54.40;;;;;;;1.40;85.85;100024.95;1790060;80;21155;-72
2020/12/13 07:46:34;;;;;;;118.08;58.40;;;;;;;1.37;85.84;100026.48;1790118;80;21144;-73
2020/12/13 07:49:13;;;;;;;108.95;57.65;;;;;;;1.38;85.83;100024.69;1789490;80;21207;-72
2020/12/13 07:51:44;;;;;;;118.55;63.05;;;;;;;1.41;85.83;100023.97;1790190;80;22018;-72
2020/12/13 07:54:19;;;;;;;119.10;57.08;;;;;;;1.45;85.83;100028.03;1789925;80;21619;-72
2020/12/13 07:56:51;;;;;;;110.50;55.52;;;;;;;1.44;85.80;100026.35;1790049;80;21530;-72
2020/12/13 07:59:24;;;;;;;118.85;55.78;;;;;;;1.47;85.81;100037.96;1790119;80;21139;-73
2020/12/13 08:01:54;;;;;;;124.97;65.40;;;;;;;1.51;85.79;100038.55;1788997;80;21155;-73
2020/12/13 08:04:40;;;;;;;103.05;49.80;;;;;;;1.56;85.77;100049.52;1790143;80;21207;-72
2020/12/13 08:07:11;;;;;;;103.95;49.55;;;;;;;1.56;85.78;100046.05;1789964;80;21207;-72
2020/12/13 08:09:42;;;;;;;101.05;50.65;;;;;;;1.57;85.77;100050.36;1789763;80;21148;-72
2020/12/13 08:12:10;;;;;;;126.95;59.35;;;;;;;1.57;85.76;100053.83;1816769;78;21171;-72
2020/12/13 08:14:36;;;;;;;122.53;59.00;;;;;;;1.59;85.76;100056.31;1808757;78;21163;-72
2020/12/13 08:17:02;;;;;;;95.90;52.83;;;;;;;1.59;85.75;100059.78;1790073;80;22622;-72
2020/12/13 08:19:35;;;;;;;107.40;52.53;;;;;;;1.59;85.74;100062.88;1789293;80;21179;-72
2020/12/13 08:22:05;;;;;;;112.65;55.48;;;;;;;1.64;85.75;100062.06;1788987;80;21226;-72
2020/12/13 08:24:32;;;;;;;;;;;;;;;1.66;85.75;100067.54;1791891;80;21155;-72
2020/12/13 08:26:59;;;;;;;120.87;56.92;;;;;;;1.72;85.75;100064.92;1789439;80;20261;-72
2020/12/13 08:29:26;;;;;;;151.50;69.03;;;;;;;1.78;85.73;100065.73;1789490;78;21282;-72
2020/12/13 08:31:54;;;;;;;112.22;54.98;;;;;;;1.79;85.69;100071.36;1789184;80;21596;-72
2020/12/13 08:34:29;;;;;;;114.62;53.95;;;;;;;1.82;85.68;100072.42;1789438;80;21648;-72
2020/12/13 08:36:58;;;;;;;113.57;53.45;;;;;;;1.80;85.67;100079.58;1789339;80;21569;-72
2020/12/13 08:39:30;;;;;;;73.22;35.80;;;;;;;1.79;85.67;100079.25;1789349;80;21171;-72
2020/12/13 08:42:01;;;;;;;98.60;49.15;;;;;;;1.79;85.64;100079.25;1789346;80;21597;-72
2020/12/13 08:44:40;;;;;;;107.90;51.33;;;;;;;1.76;85.63;100081.62;1789129;80;21164;-72
2020/12/13 08:47:09;;;;;;;105.70;53.90;;;;;;;1.76;85.63;100083.44;1791239;78;21188;-72
2020/12/13 08:49:40;;;;;;;114.03;56.25;;;;;;;1.78;85.63;100090.23;1789474;80;21559;-72
2020/12/13 08:52:21;;;;;;;113.55;57.27;;;;;;;1.81;85.62;100093.93;1789305;80;21188;-73
2020/12/13 08:54:54;;;;;;;115.35;57.73;;;;;;;1.88;85.63;100091.64;1789319;80;22066;-72
2020/12/13 08:57:34;;;;;;;124.80;61.65;;;;;;;1.90;85.63;100097.13;1788799;79;21676;-72
2020/12/13 09:00:09;;;;;;;137.05;76.30;;;;;;;1.90;85.62;100098.95;1789344;80;22324;-72
2020/12/13 09:02:35;;;;;;;122.28;58.95;;;;;;;1.91;85.59;100101.91;1789084;80;21152;-72
2020/12/13 09:05:04;;;;;;;112.83;56.75;;;;;;;1.94;85.55;100102.50;1789447;80;21175;-72
2020/12/13 09:07:32;;;;;;;117.40;61.92;;;;;;;2.00;85.55;100107.77;1758501;80;21292;-72
2020/12/13 09:10:13;;;;;;;108.47;54.18;;;;;;;2.02;85.53;100112.41;1788986;80;21254;-72
2020/12/13 09:12:40;;;;;;;;;;;;;;;2.07;85.53;100114.21;1791968;80;21180;-72
2020/12/13 09:15:13;;;;;;;102.95;51.28;;;;;;;2.15;85.50;100124.09;1789151;80;20339;-72
2020/12/13 09:17:40;;;;;;;104.07;49.55;;;;;;;2.18;85.48;100116.78;1789391;80;21136;-72
2020/12/13 09:20:08;;;;;;;75.17;36.48;;;;;;;2.22;85.48;100119.53;1789385;80;22048;-72
2020/12/13 09:22:35;;;;;;;100.80;49.73;;;;;;;2.26;85.48;100124.06;1789272;80;21208;-72
2020/12/13 09:25:01;;;;;;;98.47;51.85;;;;;;;2.29;85.47;100133.02;1789095;80;21179;-72
2020/12/13 09:27:28;;;;;;;96.72;50.55;;;;;;;2.32;85.44;100132.30;1789218;80;21188;-72
2020/12/13 09:29:56;;;;;;;94.60;50.65;;;;;;;2.36;85.40;100132.41;1789441;78;21116;-72
2020/12/13 09:32:22;;;;;;;101.25;49.05;;;;;;;2.42;85.42;100126.67;1788786;80;22144;-72
2020/12/13 09:34:48;;;;;;;109.45;53.15;;;;;;;2.38;85.44;100126.56;1788945;80;21175;-73
2020/12/13 09:37:17;;;;;;;103.75;50.80;;;;;;;2.40;85.44;100136.94;1789098;80;21580;-72
2020/12/13 09:39:44;;;;;;;105.58;52.13;;;;;;;2.45;85.42;100139.57;1789308;79;21179;-69
2020/12/13 09:42:10;;;;;;;109.55;54.13;;;;;;;2.53;85.36;100136.80;1789231;80;21131;-66
2020/12/13 09:44:37;;;;;;;110.05;54.30;;;;;;;2.52;85.32;100137.27;1789429;80;21193;-66
2020/12/13 09:47:03;;;;;;;102.30;51.30;;;;;;;2.53;85.29;100138.11;1788953;78;21572;-69
2020/12/13 09:49:30;;;;;;;109.10;53.68;;;;;;;2.53;85.30;100140.75;1798468;78;21171;-69
2020/12/13 09:52:01;;;;;;;107.03;53.58;;;;;;;2.53;85.25;100126.60;1788510;80;21586;-69
2020/12/13 09:54:30;;;;;;;102.65;51.95;;;;;;;2.57;85.23;100132.95;1788126;80;21167;-69
2020/12/13 09:56:57;;;;;;;96.10;49.50;;;;;;;2.64;85.20;100134.12;1788538;80;21259;-69
2020/12/13 09:59:23;;;;;;;106.07;49.53;;;;;;;2.73;85.18;100130.72;1787728;80;21187;-69
2020/12/13 10:01:49;;;;;;;104.15;50.45;;;;;;;2.79;85.13;100134.16;1788437;80;21192;-69
2020/12/13 10:04:17;;;;;;;97.50;48.60;;;;;;;2.85;85.10;100134.98;1788585;80;21135;-69
2020/12/13 10:06:53;;;;;;;193.70;119.10;;;;;;;2.84;85.11;100138.58;1796118;78;21178;-69
2020/12/13 10:09:16;;;;;;;;;;;;;;;2.86;85.13;100134.84;1736333;80;21578;-69
2020/12/13 10:11:42;;;;;;;124.80;59.75;;;;;;;2.88;85.08;100137.36;1786136;80;20577;-69
2020/12/13 10:14:11;;;;;;;134.10;66.17;;;;;;;2.90;85.08;100136.74;1786489;80;21188;-69
2020/12/13 10:16:38;;;;;;;138.90;69.05;;;;;;;2.89;85.03;100144.28;1786222;80;21142;-69
2020/12/13 10:19:05;;;;;;;155.75;77.32;;;;;;;2.88;85.00;100138.68;1786508;80;21164;-69
2020/12/13 10:21:32;;;;;;;181.45;85.50;;;;;;;2.90;84.98;100126.20;1786610;80;21633;-69
2020/12/13 10:23:58;;;;;;;159.97;78.05;;;;;;;2.91;85.00;100131.36;1786572;80;21573;-69
2020/12/13 10:26:27;;;;;;;182.55;92.15;;;;;;;2.96;84.97;100127.00;1786610;80;21756;-69
2020/12/13 10:28:54;;;;;;;138.88;68.85;;;;;;;2.91;84.92;100123.94;1786540;80;21188;-69
2020/12/13 10:31:33;;;;;;;148.90;68.12;;;;;;;2.87;84.91;100126.47;1786715;80;21212;-69
2020/12/13 10:33:59;;;;;;;132.55;58.80;;;;;;;2.88;84.88;100126.83;1789952;78;22081;-68
2020/12/13 10:36:27;;;;;;;106.27;54.15;;;;;;;2.98;84.85;100115.88;1789226;80;21176;-69
2020/12/13 10:38:54;;;;;;;114.90;57.88;;;;;;;3.11;84.81;100116.98;1803143;78;21164;-69
2020/12/13 10:41:21;;;;;;;114.05;58.35;;;;;;;3.11;84.78;100117.82;1788020;80;21191;-70
2020/12/13 10:43:49;;;;;;;123.10;61.53;;;;;;;3.15;84.76;100119.24;1789520;79;21152;-69
2020/12/13 10:46:15;;;;;;;129.23;75.12;;;;;;;3.23;84.77;100115.48;1787370;79;21202;-69
2020/12/13 10:48:41;;;;;;;118.62;64.22;;;;;;;3.30;84.75;100119.75;1786445;80;21200;-69
2020/12/13 10:51:07;;;;;;;123.00;62.40;;;;;;;3.39;84.71;100126.38;1786530;80;21585;-69
2020/12/13 10:53:34;;;;;;;143.05;68.70;;;;;;;3.47;84.70;100129.20;1791221;80;21187;-69
2020/12/13 10:56:02;;;;;;;142.65;72.10;;;;;;;3.53;84.69;100132.63;1791710;80;21194;-69
2020/12/13 10:58:28;;;;;;;153.65;75.08;;;;;;;3.56;84.69;100125.41;1775874;80;22085;-69
2020/12/13 11:00:56;;;;;;;152.45;78.02;;;;;;;3.55;84.63;100129.02;1791724;80;21585;-69
2020/12/13 11:03:23;;;;;;;119.08;62.67;;;;;;;3.58;84.61;100123.48;1791995;79;21132;-69
2020/12/13 11:05:49;;;;;;;119.30;68.02;;;;;;;3.59;84.62;100121.20;1791988;80;21129;-69
2020/12/13 11:08:16;;;;;;;181.60;94.22;;;;;;;3.61;84.61;100133.77;1790268;78;21148;-70
2020/12/13 11:10:46;;;;;;;244.77;110.97;;;;;;;3.65;84.56;100131.22;1788576;78;22178;-69
2020/12/13 11:13:13;;;;;;;172.53;75.57;;;;;;;3.57;84.51;100127.92;1789119;78;21159;-69
2020/12/13 11:15:42;;;;;;;318.15;136.80;;;;;;;3.54;84.48;100129.50;1789072;78;21160;-70
2020/12/13 11:18:08;;;;;;;255.18;106.72;;;;;;;3.48;84.41;100137.44;1788719;78;21131;-69
2020/12/13 11:20:34;;;;;;;178.40;89.03;;;;;;;3.46;84.41;100126.20;1788265;78;21143;-69
2020/12/13 11:23:00;;;;;;;153.23;77.17;;;;;;;3.45;84.36;100125.84;1788381;80;21202;-70
2020/12/13 11:25:27;;;;;;;173.22;93.25;;;;;;;3.51;84.36;100128.45;1787626;79;21160;-69
2020/12/13 11:27:53;;;;;;;120.47;65.67;;;;;;;3.51;84.34;100127.14;1788380;80;21195;-69
2020/12/13 11:30:19;;;;;;;127.50;64.05;;;;;;;3.59;84.32;100131.24;1788472;79;21637;-69
2020/12/13 11:32:46;;;;;;;210.10;93.87;;;;;;;3.68;84.31;100128.31;1790913;78;21112;-70
2020/12/13 11:35:15;;;;;;;116.20;61.83;;;;;;;3.71;84.26;100125.41;1788339;80;21188;-70